createdAt,value
2022-08-21T00:00:14.893Z,100066.28
2022-08-21T00:02:46.032Z,100064.88
2022-08-21T00:05:18.604Z,100064.59
2022-08-21T00:07:45.811Z,100061.28
2022-08-21T00:10:13.121Z,100068.06
2022-08-21T00:12:40.480Z,100060.66
2022-08-21T00:15:08.480Z,100058.69
2022-08-21T00:17:35.795Z,100061.91
2022-08-21T00:20:05.092Z,100061.56
2022-08-21T00:22:32.083Z,100061.00
2022-08-21T00:24:59.225Z,100053.91
2022-08-21T00:27:26.393Z,100052.78
2022-08-21T00:29:54.796Z,100040.75
2022-08-21T00:32:25.449Z,100046.69
2022-08-21T00:34:52.795Z,100049.06
2022-08-21T00:37:20.230Z,100052.31
2022-08-21T00:39:48.223Z,100056.03
2022-08-21T00:42:16.063Z,100045.66
2022-08-21T00:44:46.836Z,100052.16
2022-08-21T00:47:13.730Z,100048.88
2022-08-21T00:49:40.800Z,100045.25
2022-08-21T00:52:10.938Z,100054.66
2022-08-21T00:54:37.947Z,100049.38
2022-08-21T00:57:21.000Z,100047.91
2022-08-21T00:59:50.491Z,100063.31
2022-08-21T01:02:17.923Z,100055.09
2022-08-21T01:04:44.845Z,100061.25
2022-08-21T01:07:11.748Z,100067.19
2022-08-21T01:09:38.720Z,100057.34
2022-08-21T01:12:05.805Z,100059.97
2022-08-21T01:14:32.885Z,100061.28
2022-08-21T01:17:00.049Z,100058.81
2022-08-21T01:19:27.069Z,100053.88
2022-08-21T01:21:54.828Z,100051.38
2022-08-21T01:24:22.308Z,100049.16
2022-08-21T01:26:49.407Z,100055.91
2022-08-21T01:29:18.318Z,100049.91
2022-08-21T01:31:45.262Z,100049.56
2022-08-21T01:34:12.251Z,100056.31
2022-08-21T01:36:39.153Z,100044.84
2022-08-21T01:39:06.509Z,100044.16
2022-08-21T01:41:33.408Z,100054.78
2022-08-21T01:44:00.281Z,100048.53
2022-08-21T01:46:27.344Z,100053.41
2022-08-21T01:48:54.349Z,100056.34
2022-08-21T01:51:21.230Z,100053.88
2022-08-21T01:53:48.295Z,100051.16
2022-08-21T01:56:16.584Z,100057.91
2022-08-21T01:58:44.641Z,100056.59
2022-08-21T02:01:11.829Z,100050.31
2022-08-21T02:03:40.443Z,100049.50
2022-08-21T02:06:08.063Z,100053.31
2022-08-21T02:08:35.170Z,100046.69
2022-08-21T02:11:02.442Z,100045.56
2022-08-21T02:13:29.453Z,100050.13
2022-08-21T02:15:56.421Z,100053.13
2022-08-21T02:18:23.491Z,100055.84
2022-08-21T02:20:56.183Z,100061.34
2022-08-21T02:23:26.735Z,100061.34
2022-08-21T02:25:55.593Z,100060.53
2022-08-21T02:28:22.723Z,100063.00
2022-08-21T02:30:49.792Z,100057.81
2022-08-21T02:33:17.052Z,100059.94
2022-08-21T02:35:44.898Z,100058.56
2022-08-21T02:38:16.172Z,100051.44
2022-08-21T02:40:43.960Z,100054.44
2022-08-21T02:43:16.497Z,100063.38
2022-08-21T02:45:44.067Z,100059.00
2022-08-21T02:48:12.237Z,100061.72
2022-08-21T02:50:40.515Z,100061.50
2022-08-21T02:53:08.176Z,100063.63
2022-08-21T02:55:36.458Z,100063.13
2022-08-21T02:58:03.851Z,100068.91
2022-08-21T03:00:31.222Z,100070.31
2022-08-21T03:02:58.250Z,100071.13
2022-08-21T03:05:25.884Z,100064.66
2022-08-21T03:07:53.561Z,100060.38
2022-08-21T03:10:21.208Z,100066.47
2022-08-21T03:12:48.385Z,100064.34
2022-08-21T03:15:18.322Z,100066.09
2022-08-21T03:17:45.549Z,100068.69
2022-08-21T03:20:13.989Z,100066.03
2022-08-21T03:22:40.983Z,100067.78
2022-08-21T03:25:08.105Z,100065.47
2022-08-21T03:27:38.163Z,100067.56
2022-08-21T03:30:08.415Z,100075.78
2022-08-21T03:32:35.342Z,100075.28
2022-08-21T03:35:02.890Z,100070.44
2022-08-21T03:37:30.565Z,100069.34
2022-08-21T03:39:57.685Z,100072.88
2022-08-21T03:42:25.445Z,100075.09
2022-08-21T03:47:33.108Z,100080.38
2022-08-21T03:50:00.565Z,100071.47
2022-08-21T03:52:27.417Z,100072.06
2022-08-21T03:54:54.373Z,100079.72
2022-08-21T03:57:21.219Z,100075.97
2022-08-21T03:59:48.293Z,100073.91
2022-08-21T04:02:15.610Z,100069.94
2022-08-21T04:04:42.479Z,100067.06
2022-08-21T04:07:09.328Z,100069.34
2022-08-21T04:09:37.011Z,100074.03
2022-08-21T04:12:04.700Z,100073.63
2022-08-21T04:14:32.894Z,100069.91
2022-08-21T04:16:59.922Z,100073.50
2022-08-21T04:19:26.994Z,100065.91
2022-08-21T04:21:53.852Z,100066.47
2022-08-21T04:24:22.172Z,100068.69
2022-08-21T04:26:49.011Z,100069.81
2022-08-21T04:29:15.880Z,100068.25
2022-08-21T04:31:44.749Z,100067.22
2022-08-21T04:34:11.575Z,100065.13
2022-08-21T04:36:38.435Z,100065.75
2022-08-21T04:39:05.440Z,100067.19
2022-08-21T04:41:37.447Z,100068.06
2022-08-21T04:44:04.919Z,100071.72
2022-08-21T04:46:31.851Z,100067.22
2022-08-21T04:48:58.861Z,100070.56
2022-08-21T04:51:26.890Z,100080.44
2022-08-21T04:53:58.525Z,100073.72
2022-08-21T04:56:25.312Z,100068.88
2022-08-21T04:58:53.144Z,100084.50
2022-08-21T05:01:21.272Z,100087.31
2022-08-21T05:03:48.562Z,100086.88
2022-08-21T05:06:15.493Z,100073.28
2022-08-21T05:08:43.644Z,100076.91
2022-08-21T05:11:10.600Z,100082.13
2022-08-21T05:13:37.564Z,100068.78
2022-08-21T05:16:04.621Z,100064.97
2022-08-21T05:18:31.561Z,100070.75
2022-08-21T05:20:58.453Z,100073.81
2022-08-21T05:23:26.222Z,100068.03
2022-08-21T05:25:53.597Z,100077.34
2022-08-21T05:28:20.518Z,100075.78
2022-08-21T05:30:47.684Z,100066.81
2022-08-21T05:33:15.855Z,100084.59
2022-08-21T05:35:42.695Z,100080.50
2022-08-21T05:38:17.851Z,100073.19
2022-08-21T05:40:45.922Z,100083.59
2022-08-21T05:43:12.942Z,100082.53
2022-08-21T05:45:42.656Z,100084.47
2022-08-21T05:48:12.272Z,100080.91
2022-08-21T05:50:39.305Z,100083.09
2022-08-21T05:53:07.576Z,100082.03
2022-08-21T05:55:34.887Z,100078.47
2022-08-21T05:58:01.957Z,100084.81
2022-08-21T06:00:31.159Z,100081.53
2022-08-21T06:03:27.345Z,100070.59
2022-08-21T06:05:54.697Z,100072.75
2022-08-21T06:08:22.379Z,100064.53
2022-08-21T06:10:52.558Z,100066.19
2022-08-21T06:13:23.797Z,100066.69
2022-08-21T06:15:51.233Z,100068.03
2022-08-21T06:18:21.155Z,100063.38
2022-08-21T06:20:48.218Z,100064.41
2022-08-21T06:23:15.374Z,100079.41
2022-08-21T06:25:42.359Z,100078.00
2022-08-21T06:28:49.037Z,100069.75
2022-08-21T06:31:22.374Z,100065.09
2022-08-21T06:33:49.363Z,100071.31
2022-08-21T06:36:16.528Z,100067.63
2022-08-21T06:38:49.131Z,100061.75
2022-08-21T06:41:24.353Z,100060.59
2022-08-21T06:43:53.730Z,100057.81
2022-08-21T06:46:20.961Z,100063.25
2022-08-21T06:48:47.771Z,100063.47
2022-08-21T06:51:15.039Z,100053.78
2022-08-21T06:53:42.605Z,100049.59
2022-08-21T06:56:09.477Z,100048.44
2022-08-21T06:58:36.576Z,100055.50
2022-08-21T07:01:06.649Z,100051.81
2022-08-21T07:03:45.679Z,100046.25
2022-08-21T07:06:13.248Z,100037.47
2022-08-21T07:08:40.294Z,100035.69
2022-08-21T07:11:14.622Z,100030.06
2022-08-21T07:13:41.854Z,100030.53
2022-08-21T07:16:09.419Z,100040.28
2022-08-21T07:18:36.421Z,100037.72
2022-08-21T07:21:06.429Z,100042.41
2022-08-21T07:23:34.267Z,100043.81
2022-08-21T07:26:01.801Z,100044.06
2022-08-21T07:28:32.440Z,100042.41
2022-08-21T07:31:00.256Z,100043.41
2022-08-21T07:33:27.780Z,100035.97
2022-08-21T07:35:54.752Z,100037.31
2022-08-21T07:38:21.738Z,100036.06
2022-08-21T07:40:48.978Z,100023.09
2022-08-21T07:43:17.975Z,100037.66
2022-08-21T07:45:45.252Z,100033.41
2022-08-21T07:48:13.918Z,100038.53
2022-08-21T07:50:43.425Z,100031.69
2022-08-21T07:58:33.121Z,100020.75
2022-08-21T08:01:03.810Z,100022.63
2022-08-21T08:03:30.869Z,100015.88
2022-08-21T08:06:00.060Z,100019.25
2022-08-21T08:08:27.617Z,100008.97
2022-08-21T08:10:55.770Z,100014.13
2022-08-21T08:13:22.874Z,100014.25
2022-08-21T08:15:49.990Z,100010.69
2022-08-21T08:18:19.481Z,100017.13
2022-08-21T08:20:47.512Z,100014.47
2022-08-21T08:23:14.713Z,100014.19
2022-08-21T08:25:41.785Z,99994.00
2022-08-21T08:28:16.542Z,100004.78
2022-08-21T08:33:31.787Z,99991.28
2022-08-21T08:36:04.785Z,99993.25
2022-08-21T08:38:35.158Z,99998.75
2022-08-21T08:41:08.511Z,100000.84
2022-08-21T08:43:35.373Z,100001.78
2022-08-21T08:46:06.050Z,99996.31
2022-08-21T08:48:52.806Z,99995.50
2022-08-21T08:51:23.426Z,99993.56
2022-08-21T08:54:04.227Z,99999.25
2022-08-21T08:56:32.048Z,100005.28
2022-08-21T09:01:46.275Z,99997.94
2022-08-21T09:04:16.183Z,99998.44
2022-08-21T09:06:51.804Z,99993.91
2022-08-21T09:09:18.640Z,99991.78
2022-08-21T09:11:45.524Z,99998.41
2022-08-21T09:14:18.661Z,99996.28
2022-08-21T09:16:52.913Z,99997.13
2022-08-21T09:19:24.791Z,99996.00
2022-08-21T09:21:55.011Z,99993.88
2022-08-21T09:24:21.847Z,99986.19
2022-08-21T09:26:54.461Z,99994.28
2022-08-21T09:29:21.888Z,99993.78
2022-08-21T09:31:48.963Z,99993.13
2022-08-21T09:34:24.528Z,99995.09
2022-08-21T09:36:51.736Z,99995.56
2022-08-21T09:39:26.614Z,99985.81
2022-08-21T09:41:58.214Z,99983.38
2022-08-21T09:44:26.102Z,99987.00
2022-08-21T09:46:53.673Z,99983.94
2022-08-21T09:49:30.034Z,99988.31
2022-08-21T09:51:57.108Z,99980.63
2022-08-21T09:54:26.079Z,100002.97
2022-08-21T09:57:16.171Z,99999.19
2022-08-21T09:59:43.463Z,99988.44
2022-08-21T10:02:21.419Z,99998.41
2022-08-21T10:04:58.921Z,99990.38
2022-08-21T10:07:39.515Z,99997.66
2022-08-21T10:10:15.296Z,99988.69
2022-08-21T10:13:04.147Z,99989.22
2022-08-21T10:15:49.400Z,99984.13
2022-08-21T10:18:26.578Z,99984.94
2022-08-21T10:21:14.558Z,99978.81
2022-08-21T10:23:59.576Z,99983.75
2022-08-21T10:26:46.529Z,99975.78
2022-08-21T10:29:20.284Z,99973.34
2022-08-21T10:32:22.510Z,99968.13
2022-08-21T10:35:02.083Z,99961.16
2022-08-21T10:37:30.432Z,99953.50
2022-08-21T10:40:01.588Z,99950.59
2022-08-21T10:45:41.443Z,99943.06
2022-08-21T10:48:22.842Z,99933.28
2022-08-21T10:50:56.175Z,99939.31
2022-08-21T10:53:32.446Z,99948.09
2022-08-21T10:56:04.420Z,99957.72
2022-08-21T10:58:32.782Z,99955.03
2022-08-21T11:01:20.297Z,99961.97
2022-08-21T11:03:48.961Z,99954.94
2022-08-21T11:06:17.626Z,99951.72
2022-08-21T11:08:47.655Z,99951.22
2022-08-21T11:11:22.873Z,99970.56
2022-08-21T11:13:52.925Z,99966.59
2022-08-21T11:16:31.847Z,99960.53
2022-08-21T11:19:03.904Z,99957.28
2022-08-21T11:21:36.131Z,99951.13
2022-08-21T11:24:12.499Z,99944.28
2022-08-21T11:26:42.789Z,99945.59
2022-08-21T11:29:13.907Z,99938.72
2022-08-21T11:31:45.558Z,99938.00
2022-08-21T11:34:36.388Z,99931.56
2022-08-21T11:37:20.380Z,99918.53
2022-08-21T11:40:04.972Z,99915.28
2022-08-21T11:42:42.665Z,99916.78
2022-08-21T11:45:18.945Z,99915.38
2022-08-21T11:48:05.940Z,99910.31
2022-08-21T11:50:36.500Z,99917.06
2022-08-21T11:53:15.342Z,99922.41
2022-08-21T11:55:49.855Z,99920.47
2022-08-21T11:58:20.501Z,99921.78
2022-08-21T12:00:50.793Z,99915.63
2022-08-21T12:03:31.169Z,99914.41
2022-08-21T12:06:00.731Z,99919.66
2022-08-21T12:08:35.762Z,99920.03
2022-08-21T12:11:05.311Z,99927.06
2022-08-21T12:13:40.323Z,99930.84
2022-08-21T12:16:11.881Z,99935.28
2022-08-21T12:18:44.345Z,99933.56
2022-08-21T12:21:22.291Z,99935.31
2022-08-21T12:24:11.285Z,99937.13
2022-08-21T12:26:55.888Z,99934.66
2022-08-21T12:29:31.782Z,99924.00
2022-08-21T12:31:58.866Z,99919.81
2022-08-21T12:34:46.100Z,99922.47
2022-08-21T12:37:19.761Z,99923.09
2022-08-21T12:39:50.623Z,99919.03
2022-08-21T12:42:20.910Z,99900.09
2022-08-21T12:44:53.331Z,99909.56
2022-08-21T12:47:28.656Z,99893.28
2022-08-21T12:50:09.264Z,99889.50
2022-08-21T12:53:02.601Z,99888.97
2022-08-21T12:55:33.808Z,99888.13
2022-08-21T12:58:01.099Z,99891.41
2022-08-21T13:00:41.171Z,99883.66
2022-08-21T13:03:28.716Z,99888.13
2022-08-21T13:05:56.017Z,99894.53
2022-08-21T13:08:40.803Z,99885.81
2022-08-21T13:11:14.817Z,99861.75
2022-08-21T13:13:50.015Z,99883.22
2022-08-21T13:16:22.062Z,99874.69
2022-08-21T13:18:59.817Z,99872.19
2022-08-21T13:21:31.782Z,99880.91
2022-08-21T13:24:43.791Z,99885.53
2022-08-21T13:27:33.536Z,99883.56
2022-08-21T13:30:08.520Z,99890.53
2022-08-21T13:32:38.899Z,99895.31
2022-08-21T13:35:26.688Z,99894.94
2022-08-21T13:37:53.785Z,99881.94
2022-08-21T13:40:23.122Z,99882.63
2022-08-21T13:42:50.283Z,99872.53
2022-08-21T13:45:29.512Z,99883.25
2022-08-21T13:47:56.657Z,99866.63
2022-08-21T13:50:24.270Z,99867.28
2022-08-21T13:52:56.340Z,99873.78
2022-08-21T13:55:25.253Z,99869.72
2022-08-21T13:58:02.192Z,99863.06
2022-08-21T14:00:30.293Z,99871.50
2022-08-21T14:03:07.707Z,99861.88
2022-08-21T14:05:40.195Z,99876.59
2022-08-21T14:08:12.410Z,99879.00
2022-08-21T14:10:44.313Z,99876.38
2022-08-21T14:13:28.541Z,99874.38
2022-08-21T14:15:57.819Z,99874.66
2022-08-21T14:18:29.929Z,99875.81
2022-08-21T14:21:15.046Z,99870.59
2022-08-21T14:23:42.726Z,99881.97
2022-08-21T14:26:14.979Z,99881.81
2022-08-21T14:28:45.555Z,99880.22
2022-08-21T14:31:14.333Z,99883.34
2022-08-21T14:33:42.114Z,99883.78
2022-08-21T14:36:09.493Z,99880.00
2022-08-21T14:38:39.971Z,99883.69
2022-08-21T14:41:44.806Z,99879.53
2022-08-21T14:44:12.987Z,99874.91
2022-08-21T14:49:29.759Z,99869.31
2022-08-21T14:51:58.917Z,99876.78
2022-08-21T14:54:28.762Z,99870.44
2022-08-21T14:57:10.984Z,99865.63
2022-08-21T14:59:38.389Z,99873.25
2022-08-21T15:02:17.465Z,99872.03
2022-08-21T15:05:32.888Z,99862.97
2022-08-21T15:08:05.407Z,99873.22
2022-08-21T15:10:32.423Z,99863.06
2022-08-21T15:12:59.434Z,99866.97
2022-08-21T15:15:26.666Z,99867.19
2022-08-21T15:17:53.856Z,99864.34
2022-08-21T15:20:20.788Z,99861.94
2022-08-21T15:22:49.739Z,99873.00
2022-08-21T15:25:17.452Z,99865.53
2022-08-21T15:27:45.101Z,99863.44
2022-08-21T15:30:13.337Z,99861.69
2022-08-21T15:32:49.252Z,99861.75
2022-08-21T15:35:16.245Z,99863.44
2022-08-21T15:37:43.344Z,99863.06
2022-08-21T15:40:13.146Z,99858.47
2022-08-21T15:42:42.752Z,99864.94
2022-08-21T15:45:10.113Z,99869.84
2022-08-21T15:47:38.018Z,99873.44
2022-08-21T15:50:07.316Z,99858.59
2022-08-21T15:52:36.368Z,99856.34
2022-08-21T15:55:12.137Z,99850.25
2022-08-21T15:57:39.928Z,99847.41
2022-08-21T16:02:58.343Z,99851.06
2022-08-21T16:05:33.123Z,99844.84
2022-08-21T16:08:00.202Z,99851.25
2022-08-21T16:10:29.800Z,99848.59
2022-08-21T16:13:08.004Z,99849.84
2022-08-21T16:18:33.916Z,99842.06
2022-08-21T16:21:03.105Z,99842.16
2022-08-21T16:23:39.688Z,99837.06
2022-08-21T16:26:08.658Z,99841.22
2022-08-21T16:28:42.825Z,99838.78
2022-08-21T16:31:10.215Z,99840.50
2022-08-21T16:33:50.093Z,99838.97
2022-08-21T16:36:33.255Z,99839.06
2022-08-21T16:39:03.674Z,99831.72
2022-08-21T16:41:44.288Z,99840.56
2022-08-21T16:44:11.406Z,99833.19
2022-08-21T16:46:39.537Z,99834.91
2022-08-21T16:49:08.067Z,99841.00
2022-08-21T16:54:19.133Z,99840.50
2022-08-21T16:56:47.945Z,99840.81
2022-08-21T16:59:15.156Z,99836.41
2022-08-21T17:01:44.709Z,99829.81
2022-08-21T17:04:11.591Z,99836.13
2022-08-21T17:06:38.509Z,99833.66
2022-08-21T17:09:05.585Z,99840.56
2022-08-21T17:11:39.259Z,99841.19
2022-08-21T17:14:07.604Z,99838.53
2022-08-21T17:16:34.983Z,99846.53
2022-08-21T17:19:02.062Z,99838.59
2022-08-21T17:24:15.756Z,99848.25
2022-08-21T17:26:43.209Z,99841.44
2022-08-21T17:29:10.346Z,99852.94
2022-08-21T17:31:37.901Z,99852.09
2022-08-21T17:34:06.421Z,99854.94
2022-08-21T17:36:33.442Z,99847.59
2022-08-21T17:39:00.798Z,99855.09
2022-08-21T17:41:27.823Z,99856.56
2022-08-21T17:43:55.227Z,99862.13
2022-08-21T17:46:24.146Z,99861.13
2022-08-21T17:48:51.079Z,99857.84
2022-08-21T17:51:18.235Z,99866.38
2022-08-21T17:53:45.259Z,99859.00
2022-08-21T17:56:15.398Z,99858.50
2022-08-21T17:58:47.928Z,99857.66
2022-08-21T18:01:14.914Z,99864.63
2022-08-21T18:03:42.042Z,99865.00
2022-08-21T18:06:09.075Z,99865.34
2022-08-21T18:08:36.014Z,99854.75
2022-08-21T18:11:03.022Z,99859.97
2022-08-21T18:13:31.256Z,99854.56
2022-08-21T18:15:58.410Z,99862.56
2022-08-21T18:18:25.531Z,99851.94
2022-08-21T18:20:53.313Z,99851.47
2022-08-21T18:23:20.198Z,99855.91
2022-08-21T18:26:25.192Z,99857.06
2022-08-21T18:28:52.345Z,99854.38
2022-08-21T18:31:19.613Z,99862.91
2022-08-21T18:33:58.082Z,99864.31
2022-08-21T18:36:27.197Z,99862.72
2022-08-21T18:38:55.101Z,99864.44
2022-08-21T18:41:23.083Z,99872.66
2022-08-21T18:43:50.128Z,99868.53
2022-08-21T18:46:17.511Z,99868.00
2022-08-21T18:48:44.430Z,99869.94
2022-08-21T18:51:12.469Z,99868.28
2022-08-21T18:53:39.478Z,99875.91
2022-08-21T18:56:06.866Z,99873.19
2022-08-21T18:58:34.392Z,99872.69
2022-08-21T19:03:47.713Z,99870.47
2022-08-21T19:06:17.003Z,99874.34
2022-08-21T19:08:45.094Z,99877.91
2022-08-21T19:11:16.610Z,99872.13
2022-08-21T19:13:53.052Z,99875.97
2022-08-21T19:16:21.645Z,99886.41
2022-08-21T19:18:50.651Z,99873.81
2022-08-21T19:21:17.632Z,99873.81
2022-08-21T19:26:30.416Z,99876.59
2022-08-21T19:28:59.583Z,99865.91
2022-08-21T19:31:28.921Z,99873.09
2022-08-21T19:34:01.527Z,99876.13
2022-08-21T19:36:29.239Z,99877.22
2022-08-21T19:39:08.117Z,99878.63
2022-08-21T19:41:36.734Z,99876.97
2022-08-21T19:44:04.936Z,99875.63
2022-08-21T19:46:33.635Z,99872.38
2022-08-21T19:49:04.790Z,99871.31
2022-08-21T19:51:34.263Z,99869.97
2022-08-21T19:54:01.435Z,99869.19
2022-08-21T19:56:31.702Z,99869.78
2022-08-21T19:59:02.233Z,99869.81
2022-08-21T20:01:31.825Z,99878.03
2022-08-21T20:03:59.239Z,99875.59
2022-08-21T20:06:26.420Z,99880.53
2022-08-21T20:08:55.139Z,99879.16
2022-08-21T20:11:35.350Z,99877.00
2022-08-21T20:14:02.863Z,99881.97
2022-08-21T20:16:31.087Z,99877.59
2022-08-21T20:19:03.542Z,99871.06
2022-08-21T20:21:30.668Z,99880.88
2022-08-21T20:24:11.030Z,99877.06
2022-08-21T20:26:43.370Z,99876.53
2022-08-21T20:29:16.807Z,99882.59
2022-08-21T20:31:51.128Z,99873.56
2022-08-21T20:34:18.268Z,99876.00
2022-08-21T20:36:45.290Z,99886.41
2022-08-21T20:39:14.777Z,99879.03
2022-08-21T20:41:44.488Z,99871.66
2022-08-21T20:44:15.007Z,99869.50
2022-08-21T20:46:41.958Z,99877.75
2022-08-21T20:49:12.481Z,99878.88
2022-08-21T20:51:43.246Z,99867.16
2022-08-21T20:54:16.097Z,99884.66
2022-08-21T20:56:55.520Z,99878.69
2022-08-21T20:59:33.474Z,99877.59
2022-08-21T21:02:12.845Z,99869.91
2022-08-21T21:04:48.660Z,99874.00
2022-08-21T21:07:25.552Z,99870.44
2022-08-21T21:09:53.127Z,99867.38
2022-08-21T21:15:11.662Z,99864.88
2022-08-21T21:17:51.327Z,99872.50
2022-08-21T21:20:25.043Z,99871.69
2022-08-21T21:22:53.663Z,99862.41
2022-08-21T21:28:21.859Z,99865.19
2022-08-21T21:30:51.954Z,99866.03
2022-08-21T21:33:28.864Z,99869.09
2022-08-21T21:35:59.778Z,99868.28
2022-08-21T21:38:53.610Z,99871.06
2022-08-21T21:41:24.899Z,99867.81
2022-08-21T21:44:11.046Z,99866.44
2022-08-21T21:46:43.722Z,99863.16
2022-08-21T21:49:22.244Z,99871.06
2022-08-21T21:54:54.602Z,99866.97
2022-08-21T21:57:25.607Z,99868.31
2022-08-21T22:00:14.569Z,99869.41
2022-08-21T22:02:46.778Z,99863.94
2022-08-21T22:05:19.884Z,99866.66
2022-08-21T22:07:54.110Z,99869.16
2022-08-21T22:10:30.563Z,99860.94
2022-08-21T22:13:10.054Z,99865.88
2022-08-21T22:15:38.013Z,99863.41
2022-08-21T22:18:10.174Z,99862.59
2022-08-21T22:20:57.448Z,99864.53
2022-08-21T22:23:32.471Z,99869.19
2022-08-21T22:26:03.239Z,99862.88
2022-08-21T22:28:30.137Z,99858.25
2022-08-21T22:31:10.732Z,99867.53
2022-08-21T22:33:37.843Z,99865.91
2022-08-21T22:36:15.900Z,99860.44
2022-08-21T22:38:43.207Z,99862.34
2022-08-21T22:41:13.088Z,99868.09
2022-08-21T22:43:54.451Z,99869.47
2022-08-21T22:46:28.409Z,99873.59
2022-08-21T22:49:03.836Z,99874.16
2022-08-21T22:51:39.072Z,99866.50
2022-08-21T22:54:16.559Z,99869.53
2022-08-21T22:56:45.392Z,99870.91
2022-08-21T22:59:36.516Z,99871.16
2022-08-21T23:02:11.445Z,99871.47
2022-08-21T23:04:44.952Z,99870.91
2022-08-21T23:07:11.911Z,99865.44
2022-08-21T23:09:46.904Z,99870.91
2022-08-21T23:12:34.339Z,99867.38
2022-08-21T23:15:11.829Z,99863.53
2022-08-21T23:17:58.935Z,99876.94
2022-08-21T23:20:26.010Z,99873.34
2022-08-21T23:22:59.395Z,99871.72
2022-08-21T23:25:26.684Z,99871.72
2022-08-21T23:28:09.216Z,99878.00
2022-08-21T23:30:55.547Z,99871.72
2022-08-21T23:33:27.216Z,99879.94
2022-08-21T23:36:32.281Z,99877.47
2022-08-21T23:39:20.573Z,99878.56
2022-08-21T23:42:21.175Z,99887.88
2022-08-21T23:44:52.011Z,99886.22
2022-08-21T23:47:24.972Z,99887.34
2022-08-21T23:50:00.977Z,99881.31
2022-08-21T23:52:42.867Z,99884.34
2022-08-21T23:55:18.577Z,99897.19
2022-08-21T23:57:49.016Z,99893.91
